createdAt,value
2022-08-18T00:00:57.955Z,6.80
2022-08-18T00:02:01.156Z,8.00
2022-08-18T00:03:27.250Z,7.50
2022-08-18T00:04:14.761Z,6.50
2022-08-18T00:05:14.802Z,5.50
2022-08-18T00:06:18.175Z,6.50
2022-08-18T00:07:21.632Z,9.00
2022-08-18T00:08:24.910Z,7.00
2022-08-18T00:09:32.152Z,8.75
2022-08-18T00:10:32.911Z,8.50
2022-08-18T00:11:40.552Z,6.75
2022-08-18T00:12:41.012Z,8.00
2022-08-18T00:13:44.167Z,7.50
2022-08-18T00:14:47.599Z,6.50
2022-08-18T00:15:50.774Z,6.50
2022-08-18T00:16:54.095Z,5.75
2022-08-18T00:17:57.255Z,7.00
2022-08-18T00:19:00.569Z,11.00
2022-08-18T00:20:03.908Z,10.75
2022-08-18T00:21:07.193Z,10.50
2022-08-18T00:22:14.916Z,8.00
2022-08-18T00:23:15.191Z,7.25
2022-08-18T00:24:18.678Z,8.50
2022-08-18T00:25:22.163Z,9.00
2022-08-18T00:26:25.559Z,7.00
2022-08-18T00:27:29.103Z,6.25
2022-08-18T00:28:32.435Z,5.00
2022-08-18T00:29:35.817Z,4.00
2022-08-18T00:30:41.970Z,5.00
2022-08-18T00:31:45.209Z,7.00
2022-08-18T00:32:48.459Z,8.50
2022-08-18T00:33:51.619Z,6.75
2022-08-18T00:34:54.795Z,5.00
2022-08-18T00:35:57.994Z,4.00
2022-08-18T00:37:01.262Z,3.25
2022-08-18T00:38:04.547Z,4.00
2022-08-18T00:39:07.629Z,3.00
2022-08-18T00:40:10.953Z,4.00
2022-08-18T00:41:14.203Z,3.50
2022-08-18T00:42:27.425Z,3.50
2022-08-18T00:43:21.802Z,3.25
2022-08-18T00:44:25.183Z,4.50
2022-08-18T00:45:28.455Z,4.00
2022-08-18T00:46:31.743Z,4.00
2022-08-18T00:47:42.488Z,5.00
2022-08-18T00:48:39.333Z,5.00
2022-08-18T00:49:42.527Z,4.00
2022-08-18T00:50:45.764Z,2.00
2022-08-18T00:51:48.780Z,4.00
2022-08-18T00:52:51.966Z,4.50
2022-08-18T00:53:55.144Z,4.00
2022-08-18T00:54:58.223Z,5.00
2022-08-18T00:56:01.503Z,4.00
2022-08-18T00:57:05.003Z,3.75
2022-08-18T00:58:08.411Z,5.00
2022-08-18T00:59:11.545Z,3.75
2022-08-18T01:00:14.654Z,5.50
2022-08-18T01:01:17.815Z,6.25
2022-08-18T01:02:21.107Z,4.00
2022-08-18T01:03:24.903Z,4.75
2022-08-18T01:04:28.393Z,3.50
2022-08-18T01:05:31.585Z,2.50
2022-08-18T01:06:34.651Z,2.50
2022-08-18T01:07:37.794Z,1.75
2022-08-18T01:08:40.994Z,2.25
2022-08-18T01:09:45.126Z,3.00
2022-08-18T01:10:48.330Z,3.50
2022-08-18T01:11:51.527Z,4.25
2022-08-18T01:12:54.768Z,3.50
2022-08-18T01:13:57.949Z,4.50
2022-08-18T01:15:01.132Z,5.50
2022-08-18T01:16:04.413Z,4.25
2022-08-18T01:17:07.606Z,4.00
2022-08-18T01:18:10.794Z,4.00
2022-08-18T01:19:14.400Z,5.00
2022-08-18T01:20:17.568Z,4.25
2022-08-18T01:21:20.744Z,3.50
2022-08-18T01:22:23.820Z,6.00
2022-08-18T01:23:26.912Z,5.50
2022-08-18T01:24:29.983Z,5.00
2022-08-18T01:25:33.241Z,3.75
2022-08-18T01:26:36.332Z,2.50
2022-08-18T01:27:40.747Z,3.50
2022-08-18T01:28:43.943Z,3.25
2022-08-18T01:29:47.112Z,2.25
2022-08-18T01:30:50.219Z,2.50
2022-08-18T01:31:55.059Z,2.40
2022-08-18T01:32:57.782Z,2.50
2022-08-18T01:34:00.979Z,2.50
2022-08-18T01:35:04.156Z,4.25
2022-08-18T01:36:07.230Z,3.80
2022-08-18T01:37:10.520Z,2.00
2022-08-18T01:38:13.792Z,3.00
2022-08-18T01:39:16.982Z,4.50
2022-08-18T01:41:23.095Z,4.00
2022-08-18T01:41:30.241Z,2.50
2022-08-18T01:42:30.007Z,5.00
2022-08-18T01:43:33.182Z,4.50
2022-08-18T01:44:36.468Z,2.00
2022-08-18T01:45:39.551Z,1.50
2022-08-18T01:46:42.701Z,2.50
2022-08-18T01:47:47.954Z,3.00
2022-08-18T01:48:50.220Z,1.75
2022-08-18T01:49:53.452Z,4.00
2022-08-18T01:50:56.482Z,2.50
2022-08-18T01:51:59.664Z,3.25
2022-08-18T01:53:02.947Z,2.75
2022-08-18T01:54:06.233Z,2.25
2022-08-18T01:55:09.429Z,3.50
2022-08-18T01:56:12.799Z,3.50
2022-08-18T01:57:17.322Z,2.00
2022-08-18T01:58:21.110Z,0.75
2022-08-18T01:59:25.011Z,2.00
2022-08-18T02:00:28.498Z,2.00
2022-08-18T02:01:36.525Z,3.00
2022-08-18T02:02:37.272Z,3.50
2022-08-18T02:03:40.396Z,3.00
2022-08-18T02:04:43.595Z,3.00
2022-08-18T02:05:46.719Z,2.60
2022-08-18T02:06:50.554Z,2.50
2022-08-18T02:07:54.523Z,4.50
2022-08-18T02:08:58.047Z,5.00
2022-08-18T02:10:01.227Z,4.50
2022-08-18T02:11:05.548Z,5.25
2022-08-18T02:12:08.727Z,2.50
2022-08-18T02:13:11.902Z,3.25
2022-08-18T02:14:14.995Z,3.00
2022-08-18T02:15:18.141Z,2.00
2022-08-18T02:16:21.347Z,1.25
2022-08-18T02:17:24.521Z,1.00
2022-08-18T02:18:47.567Z,1.50
2022-08-18T02:19:32.011Z,2.50
2022-08-18T02:20:35.194Z,2.75
2022-08-18T02:21:38.581Z,1.75
2022-08-18T02:22:41.872Z,2.00
2022-08-18T02:23:53.137Z,2.50
2022-08-18T02:24:49.422Z,2.25
2022-08-18T02:25:52.445Z,2.75
2022-08-18T02:26:55.720Z,2.00
2022-08-18T02:27:58.901Z,2.50
2022-08-18T02:29:02.292Z,2.50
2022-08-18T02:30:05.584Z,2.50
2022-08-18T02:31:08.960Z,1.50
2022-08-18T02:32:13.399Z,1.00
2022-08-18T02:33:16.756Z,1.75
2022-08-18T02:34:20.242Z,1.50
2022-08-18T02:35:23.429Z,1.50
2022-08-18T02:36:26.737Z,1.75
2022-08-18T02:37:30.318Z,1.00
2022-08-18T02:38:33.595Z,2.00
2022-08-18T02:39:37.042Z,2.00
2022-08-18T02:40:40.461Z,1.00
2022-08-18T02:41:43.640Z,2.00
2022-08-18T02:42:47.139Z,1.50
2022-08-18T02:43:50.314Z,2.75
2022-08-18T02:44:54.311Z,2.75
2022-08-18T02:45:57.474Z,3.00
2022-08-18T02:47:00.588Z,1.50
2022-08-18T02:48:03.970Z,1.50
2022-08-18T02:49:07.347Z,1.50
2022-08-18T02:50:10.948Z,1.00
2022-08-18T02:51:14.456Z,0.50
2022-08-18T02:52:17.733Z,0.00
2022-08-18T02:53:21.102Z,0.75
2022-08-18T02:54:24.486Z,0.50
2022-08-18T02:55:27.876Z,1.00
2022-08-18T02:56:32.695Z,1.00
2022-08-18T02:57:35.880Z,1.25
2022-08-18T02:58:39.278Z,1.00
2022-08-18T02:59:42.443Z,0.50
2022-08-18T03:00:46.920Z,0.00
2022-08-18T03:01:50.083Z,0.00
2022-08-18T03:02:53.219Z,1.50
2022-08-18T03:03:56.400Z,1.25
2022-08-18T03:04:59.681Z,2.00
2022-08-18T03:06:03.071Z,1.50
2022-08-18T03:07:06.353Z,0.50
2022-08-18T03:08:10.015Z,1.50
2022-08-18T03:09:13.240Z,1.50
2022-08-18T03:10:31.718Z,0.25
2022-08-18T03:11:21.131Z,0.00
2022-08-18T03:12:24.499Z,0.00
2022-08-18T03:13:27.688Z,0.50
2022-08-18T03:14:30.894Z,0.50
2022-08-18T03:15:34.178Z,0.50
2022-08-18T03:16:37.652Z,0.50
2022-08-18T03:17:41.041Z,0.50
2022-08-18T03:18:44.390Z,0.50
2022-08-18T03:19:47.811Z,1.00
2022-08-18T03:20:51.314Z,1.00
2022-08-18T03:21:54.482Z,2.00
2022-08-18T03:22:57.576Z,1.50
2022-08-18T03:24:02.983Z,1.50
2022-08-18T03:25:07.406Z,0.50
2022-08-18T03:26:10.825Z,1.25
2022-08-18T03:27:14.045Z,2.00
2022-08-18T03:28:17.273Z,3.00
2022-08-18T03:29:20.558Z,3.00
2022-08-18T03:30:23.947Z,3.50
2022-08-18T03:31:27.813Z,4.00
2022-08-18T03:32:31.620Z,6.00
2022-08-18T03:33:35.016Z,6.50
2022-08-18T03:34:38.504Z,8.00
2022-08-18T03:35:41.705Z,12.00
2022-08-18T03:36:45.077Z,12.25
2022-08-18T03:37:48.306Z,12.00
2022-08-18T03:38:53.223Z,11.00
2022-08-18T03:39:56.129Z,12.50
2022-08-18T03:40:59.199Z,12.75
2022-08-18T03:42:02.474Z,14.25
2022-08-18T03:43:05.921Z,14.50
2022-08-18T03:44:10.450Z,14.25
2022-08-18T03:45:17.814Z,12.50
2022-08-18T03:46:18.121Z,11.00
2022-08-18T03:47:21.379Z,10.00
2022-08-18T03:48:24.794Z,9.00
2022-08-18T03:49:28.189Z,9.00
2022-08-18T03:50:31.654Z,8.50
2022-08-18T03:51:35.149Z,8.00
2022-08-18T03:52:41.478Z,8.00
2022-08-18T03:53:43.148Z,6.00
2022-08-18T03:54:46.435Z,3.50
2022-08-18T03:55:49.510Z,5.00
2022-08-18T03:56:52.591Z,4.00
2022-08-18T03:57:55.891Z,4.50
2022-08-18T03:58:59.029Z,4.25
2022-08-18T04:00:02.032Z,3.25
2022-08-18T04:01:05.451Z,2.50
2022-08-18T04:02:08.912Z,4.25
2022-08-18T04:03:12.106Z,4.00
2022-08-18T04:04:15.273Z,5.00
2022-08-18T04:05:18.595Z,6.50
2022-08-18T04:06:30.048Z,5.00
2022-08-18T04:07:25.934Z,4.75
2022-08-18T04:08:29.139Z,3.40
2022-08-18T04:09:32.310Z,4.00
2022-08-18T04:10:35.491Z,4.50
2022-08-18T04:11:38.531Z,4.00
2022-08-18T04:12:41.402Z,3.50
2022-08-18T04:13:44.627Z,2.50
2022-08-18T04:14:48.456Z,1.50
2022-08-18T04:15:51.926Z,3.50
2022-08-18T04:16:55.060Z,3.00
2022-08-18T04:18:04.184Z,3.00
2022-08-18T04:19:02.388Z,3.00
2022-08-18T04:20:05.594Z,3.50
2022-08-18T04:21:08.740Z,3.50
2022-08-18T04:22:18.185Z,2.50
2022-08-18T04:23:16.241Z,2.00
2022-08-18T04:24:19.327Z,1.50
2022-08-18T04:25:22.861Z,0.50
2022-08-18T04:26:25.983Z,1.50
2022-08-18T04:27:29.071Z,2.00
2022-08-18T04:28:32.221Z,1.50
2022-08-18T04:29:35.432Z,1.50
2022-08-18T04:30:38.607Z,2.00
2022-08-18T04:31:41.785Z,2.00
2022-08-18T04:32:44.973Z,1.50
2022-08-18T04:33:48.161Z,1.50
2022-08-18T04:34:51.229Z,2.50
2022-08-18T04:35:54.182Z,2.00
2022-08-18T04:36:57.501Z,2.50
2022-08-18T04:38:00.775Z,3.00
2022-08-18T04:39:03.969Z,2.50
2022-08-18T04:40:07.305Z,3.25
2022-08-18T04:41:10.653Z,4.25
2022-08-18T04:42:13.722Z,3.50
2022-08-18T04:43:17.094Z,2.00
2022-08-18T04:44:20.401Z,2.25
2022-08-18T04:45:23.556Z,2.00
2022-08-18T04:46:26.753Z,2.00
2022-08-18T04:47:29.928Z,1.00
2022-08-18T04:48:33.078Z,2.00
2022-08-18T04:49:36.188Z,2.00
2022-08-18T04:50:39.486Z,2.00
2022-08-18T04:52:36.588Z,2.50
2022-08-18T04:52:46.753Z,1.50
2022-08-18T04:53:49.844Z,2.00
2022-08-18T04:54:53.764Z,1.00
2022-08-18T04:55:56.917Z,2.75
2022-08-18T04:57:00.040Z,1.50
2022-08-18T04:58:03.277Z,3.00
2022-08-18T04:59:06.357Z,2.50
2022-08-18T05:00:09.641Z,1.00
2022-08-18T05:01:12.984Z,1.25
2022-08-18T05:02:16.115Z,1.50
2022-08-18T05:03:19.395Z,2.00
2022-08-18T05:04:22.481Z,3.00
2022-08-18T05:05:25.454Z,1.50
2022-08-18T05:06:28.626Z,1.00
2022-08-18T05:07:31.714Z,0.50
2022-08-18T05:08:34.787Z,1.00
2022-08-18T05:09:41.164Z,2.00
2022-08-18T05:10:42.180Z,2.50
2022-08-18T05:11:45.564Z,1.00
2022-08-18T05:12:48.878Z,2.00
2022-08-18T05:13:52.015Z,2.50
2022-08-18T05:14:55.214Z,2.00
2022-08-18T05:16:09.806Z,1.25
2022-08-18T05:17:02.622Z,0.75
2022-08-18T05:18:05.711Z,2.00
2022-08-18T05:19:09.757Z,3.00
2022-08-18T05:20:12.833Z,2.50
2022-08-18T05:21:15.850Z,0.50
2022-08-18T05:22:19.023Z,0.50
2022-08-18T05:23:23.326Z,0.50
2022-08-18T05:24:29.507Z,1.00
2022-08-18T05:25:30.750Z,1.50
2022-08-18T05:26:33.704Z,0.50
2022-08-18T05:27:36.866Z,0.00
2022-08-18T05:28:39.956Z,0.50
2022-08-18T05:29:46.078Z,1.00
2022-08-18T05:30:47.351Z,1.25
2022-08-18T05:31:50.493Z,1.50
2022-08-18T05:32:53.504Z,1.50
2022-08-18T05:33:56.564Z,1.50
2022-08-18T05:34:59.565Z,1.00
2022-08-18T05:36:02.740Z,2.50
2022-08-18T05:37:05.925Z,2.50
2022-08-18T05:38:08.955Z,0.50
2022-08-18T05:39:12.079Z,1.50
2022-08-18T05:40:15.351Z,2.00
2022-08-18T05:41:18.452Z,2.50
2022-08-18T05:42:21.730Z,2.00
2022-08-18T05:43:24.908Z,2.00
2022-08-18T05:44:28.003Z,2.50
2022-08-18T05:45:31.278Z,2.25
2022-08-18T05:46:34.419Z,2.00
2022-08-18T05:47:37.442Z,2.50
2022-08-18T05:48:43.685Z,2.50
2022-08-18T05:49:44.623Z,2.00
2022-08-18T05:50:47.962Z,1.25
2022-08-18T05:51:50.880Z,2.00
2022-08-18T05:52:57.160Z,2.50
2022-08-18T05:54:00.618Z,2.25
2022-08-18T05:55:03.802Z,2.00
2022-08-18T05:56:06.989Z,2.00
2022-08-18T05:57:10.383Z,2.00
2022-08-18T05:58:13.858Z,2.25
2022-08-18T05:59:17.348Z,2.00
2022-08-18T06:00:20.835Z,1.00
2022-08-18T06:01:24.224Z,2.00
2022-08-18T06:02:27.616Z,2.50
2022-08-18T06:03:31.142Z,1.00
2022-08-18T06:04:35.517Z,3.00
2022-08-18T06:05:38.802Z,1.80
2022-08-18T06:06:46.922Z,1.50
2022-08-18T06:07:46.142Z,1.50
2022-08-18T06:08:49.465Z,1.50
2022-08-18T06:09:52.550Z,3.75
2022-08-18T06:10:55.730Z,4.50
2022-08-18T06:11:58.706Z,2.75
2022-08-18T06:13:01.887Z,2.75
2022-08-18T06:14:05.374Z,2.50
2022-08-18T06:15:08.989Z,3.00
2022-08-18T06:16:12.551Z,4.00
2022-08-18T06:17:15.847Z,1.50
2022-08-18T06:18:19.108Z,1.00
2022-08-18T06:19:22.411Z,1.75
2022-08-18T06:20:25.804Z,3.00
2022-08-18T06:21:29.054Z,3.50
2022-08-18T06:22:32.567Z,2.25
2022-08-18T06:23:36.979Z,3.50
2022-08-18T06:24:40.267Z,3.50
2022-08-18T06:25:43.346Z,3.00
2022-08-18T06:26:46.729Z,4.00
2022-08-18T06:27:49.877Z,3.50
2022-08-18T06:28:53.203Z,3.75
2022-08-18T06:29:56.290Z,2.50
2022-08-18T06:30:59.476Z,1.50
2022-08-18T06:32:02.646Z,3.00
2022-08-18T06:33:06.029Z,2.50
2022-08-18T06:34:09.421Z,1.50
2022-08-18T06:35:13.002Z,1.00
2022-08-18T06:36:18.743Z,1.50
2022-08-18T06:37:20.901Z,2.25
2022-08-18T06:38:24.311Z,2.25
2022-08-18T06:39:27.621Z,2.50
2022-08-18T06:40:31.168Z,2.00
2022-08-18T06:41:41.465Z,2.00
2022-08-18T06:42:40.550Z,2.75
2022-08-18T06:43:43.473Z,3.00
2022-08-18T06:44:46.865Z,2.50
2022-08-18T06:45:49.945Z,2.00
2022-08-18T06:46:53.565Z,2.00
2022-08-18T06:47:57.023Z,2.75
2022-08-18T06:49:00.206Z,3.00
2022-08-18T06:50:03.400Z,3.00
2022-08-18T06:51:06.882Z,3.00
2022-08-18T06:52:10.265Z,2.00
2022-08-18T06:53:26.824Z,2.00
2022-08-18T06:54:17.956Z,2.50
2022-08-18T06:55:21.162Z,2.50
2022-08-18T06:56:26.025Z,2.00
2022-08-18T06:57:28.943Z,2.25
2022-08-18T06:58:32.529Z,2.50
2022-08-18T06:59:35.946Z,4.50
2022-08-18T07:00:39.252Z,3.50
2022-08-18T07:01:42.470Z,2.50
2022-08-18T07:02:45.575Z,2.00
2022-08-18T07:03:48.742Z,3.25
2022-08-18T07:04:51.922Z,3.50
2022-08-18T07:05:54.984Z,3.50
2022-08-18T07:06:58.090Z,3.80
2022-08-18T07:08:01.288Z,3.25
2022-08-18T07:09:04.359Z,3.50
2022-08-18T07:10:07.482Z,3.25
2022-08-18T07:11:10.436Z,3.00
2022-08-18T07:12:13.440Z,3.00
2022-08-18T07:13:16.776Z,4.50
2022-08-18T07:14:20.050Z,4.25
2022-08-18T07:15:23.229Z,3.00
2022-08-18T07:16:46.937Z,2.50
2022-08-18T07:17:42.134Z,2.50
2022-08-18T07:18:35.445Z,3.50
2022-08-18T07:19:38.841Z,3.50
2022-08-18T07:20:42.006Z,3.00
2022-08-18T07:21:45.088Z,3.00
2022-08-18T07:22:48.282Z,3.50
2022-08-18T07:24:14.201Z,3.00
2022-08-18T07:24:56.573Z,3.00
2022-08-18T07:25:59.769Z,3.75
2022-08-18T07:27:02.941Z,2.50
2022-08-18T07:28:06.645Z,3.00
2022-08-18T07:29:09.884Z,5.25
2022-08-18T07:30:15.321Z,4.50
2022-08-18T07:31:17.742Z,7.50
2022-08-18T07:32:21.765Z,6.50
2022-08-18T07:33:25.211Z,6.00
2022-08-18T07:34:28.286Z,7.50
2022-08-18T07:35:31.374Z,8.00
2022-08-18T07:36:34.549Z,7.00
2022-08-18T07:37:37.629Z,4.75
2022-08-18T07:38:42.978Z,3.00
2022-08-18T07:39:47.381Z,4.25
2022-08-18T07:40:49.124Z,5.50
2022-08-18T07:41:51.955Z,7.00
2022-08-18T07:43:01.179Z,6.50
2022-08-18T07:43:59.076Z,6.00
2022-08-18T07:45:02.048Z,5.25
2022-08-18T07:46:05.203Z,4.00
2022-08-18T07:47:08.181Z,3.50
2022-08-18T07:48:34.783Z,3.00
2022-08-18T07:49:17.297Z,4.00
2022-08-18T07:50:36.044Z,4.50
2022-08-18T07:51:23.496Z,5.50
2022-08-18T07:52:44.205Z,4.75
2022-08-18T07:53:30.985Z,4.00
2022-08-18T07:54:50.419Z,3.00
2022-08-18T07:55:38.276Z,3.75
2022-08-18T07:56:41.335Z,5.50
2022-08-18T07:57:44.461Z,6.00
2022-08-18T07:58:47.487Z,5.25
2022-08-18T07:59:50.592Z,4.00
2022-08-18T08:00:59.418Z,3.50
2022-08-18T08:01:58.077Z,3.00
2022-08-18T08:03:01.166Z,4.00
2022-08-18T08:04:04.345Z,3.25
2022-08-18T08:05:07.424Z,2.50
2022-08-18T08:06:10.615Z,3.75
2022-08-18T08:07:28.720Z,4.00
2022-08-18T08:08:19.134Z,4.00
2022-08-18T08:09:22.096Z,4.50
2022-08-18T08:10:25.902Z,5.00
2022-08-18T08:11:28.962Z,3.75
2022-08-18T08:12:32.266Z,5.50
2022-08-18T08:13:54.295Z,5.00
2022-08-18T08:14:39.742Z,3.50
2022-08-18T08:15:42.823Z,4.50
2022-08-18T08:16:45.917Z,4.00
2022-08-18T08:17:48.972Z,4.00
2022-08-18T08:18:53.059Z,4.00
2022-08-18T08:20:00.506Z,4.00
2022-08-18T08:21:00.496Z,2.50
2022-08-18T08:22:03.665Z,1.50
2022-08-18T08:23:06.735Z,3.00
2022-08-18T08:24:09.710Z,4.00
2022-08-18T08:25:28.637Z,3.50
2022-08-18T08:26:17.009Z,4.00
2022-08-18T08:27:20.090Z,3.00
2022-08-18T08:28:23.262Z,2.50
2022-08-18T08:29:26.244Z,3.00
2022-08-18T08:30:29.348Z,4.50
2022-08-18T08:31:36.627Z,4.00
2022-08-18T08:32:36.813Z,3.50
2022-08-18T08:33:39.984Z,4.00
2022-08-18T08:34:43.374Z,3.50
2022-08-18T08:35:48.875Z,2.50
2022-08-18T08:36:50.631Z,3.50
2022-08-18T08:37:53.599Z,3.50
2022-08-18T08:38:57.857Z,3.25
2022-08-18T08:40:01.206Z,3.50
2022-08-18T08:41:04.323Z,4.50
2022-08-18T08:42:07.496Z,4.00
2022-08-18T08:43:11.704Z,4.75
2022-08-18T08:44:14.890Z,3.50
2022-08-18T08:45:18.067Z,3.00
2022-08-18T08:46:21.130Z,2.75
2022-08-18T08:47:24.244Z,5.00
2022-08-18T08:48:27.195Z,4.50
2022-08-18T08:49:30.385Z,2.75
2022-08-18T08:50:33.456Z,2.50
2022-08-18T08:51:36.454Z,3.25
2022-08-18T08:52:39.718Z,3.25
2022-08-18T08:53:42.991Z,3.75
2022-08-18T08:54:46.286Z,2.50
2022-08-18T08:55:49.364Z,3.00
2022-08-18T08:56:52.314Z,2.75
2022-08-18T08:57:55.529Z,2.40
2022-08-18T08:58:58.704Z,3.00
2022-08-18T09:00:01.882Z,3.00
2022-08-18T09:01:05.070Z,3.00
2022-08-18T09:02:08.194Z,3.25
2022-08-18T09:03:11.338Z,3.00
2022-08-18T09:04:14.306Z,3.00
2022-08-18T09:05:17.542Z,2.50
2022-08-18T09:06:20.686Z,3.50
2022-08-18T09:07:23.867Z,3.00
2022-08-18T09:08:27.048Z,2.75
2022-08-18T09:09:30.205Z,2.50
2022-08-18T09:10:33.406Z,2.50
2022-08-18T09:11:36.486Z,3.25
2022-08-18T09:12:39.680Z,3.50
2022-08-18T09:13:42.753Z,2.50
2022-08-18T09:14:45.925Z,2.50
2022-08-18T09:15:49.007Z,2.00
2022-08-18T09:16:52.164Z,1.50
2022-08-18T09:17:55.268Z,2.50
2022-08-18T09:18:58.310Z,2.00
2022-08-18T09:20:01.524Z,2.25
2022-08-18T09:21:04.640Z,3.00
2022-08-18T09:22:07.701Z,3.00
2022-08-18T09:23:10.773Z,2.80
2022-08-18T09:24:13.972Z,2.00
2022-08-18T09:25:17.037Z,2.00
2022-08-18T09:26:20.032Z,2.50
2022-08-18T09:27:23.085Z,3.00
2022-08-18T09:28:26.164Z,3.00
2022-08-18T09:29:29.329Z,2.50
2022-08-18T09:30:32.423Z,2.50
2022-08-18T09:31:35.503Z,3.00
2022-08-18T09:32:39.798Z,2.75
2022-08-18T09:33:43.923Z,4.50
2022-08-18T09:34:47.202Z,4.50
2022-08-18T09:35:51.987Z,2.50
2022-08-18T09:36:56.484Z,1.75
2022-08-18T09:37:59.603Z,2.00
2022-08-18T09:39:03.842Z,3.00
2022-08-18T09:40:11.373Z,4.50
2022-08-18T09:41:12.173Z,2.00
2022-08-18T09:42:15.822Z,2.50
2022-08-18T09:44:26.813Z,2.50
2022-08-18T09:45:31.105Z,2.50
2022-08-18T09:46:31.623Z,2.00
2022-08-18T09:47:35.655Z,3.50
2022-08-18T09:48:43.216Z,2.50
2022-08-18T09:49:47.694Z,3.00
2022-08-18T09:50:47.219Z,2.50
2022-08-18T09:51:50.294Z,2.00
2022-08-18T09:52:54.337Z,2.00
2022-08-18T09:53:58.527Z,1.00
2022-08-18T09:55:02.815Z,2.00
2022-08-18T09:56:06.053Z,2.00
2022-08-18T09:57:09.471Z,2.00
2022-08-18T09:58:12.656Z,2.60
2022-08-18T09:59:15.948Z,1.60
2022-08-18T10:00:19.222Z,2.50
2022-08-18T10:01:22.764Z,2.50
2022-08-18T10:02:28.302Z,2.50
2022-08-18T10:03:31.064Z,3.00
2022-08-18T10:04:34.652Z,3.00
2022-08-18T10:05:37.896Z,2.50
2022-08-18T10:06:43.019Z,2.50
2022-08-18T10:07:45.699Z,3.00
2022-08-18T10:08:48.986Z,3.00
2022-08-18T10:09:52.062Z,1.00
2022-08-18T10:11:00.652Z,1.50
2022-08-18T10:11:59.978Z,2.50
2022-08-18T10:13:04.164Z,2.00
2022-08-18T10:14:07.558Z,0.50
2022-08-18T10:15:11.879Z,1.50
2022-08-18T10:16:15.769Z,2.00
2022-08-18T10:17:23.896Z,0.50
2022-08-18T10:18:24.561Z,0.50
2022-08-18T10:19:28.165Z,1.00
2022-08-18T10:20:32.488Z,1.50
2022-08-18T10:21:35.769Z,3.00
2022-08-18T10:22:39.164Z,2.75
2022-08-18T10:23:48.037Z,2.00
2022-08-18T10:24:47.164Z,1.50
2022-08-18T10:25:50.252Z,1.00
2022-08-18T10:26:54.578Z,1.00
2022-08-18T10:27:57.938Z,1.00
2022-08-18T10:29:01.126Z,1.50
2022-08-18T10:30:04.294Z,2.00
2022-08-18T10:31:10.188Z,1.00
2022-08-18T10:32:14.077Z,0.50
2022-08-18T10:33:18.256Z,0.50
2022-08-18T10:34:20.817Z,1.00
2022-08-18T10:35:32.623Z,1.00
2022-08-18T10:36:29.650Z,0.50
2022-08-18T10:37:33.949Z,0.50
2022-08-18T10:38:37.126Z,1.00
2022-08-18T10:39:41.863Z,1.00
2022-08-18T10:40:45.206Z,0.50
2022-08-18T10:41:49.534Z,0.00
2022-08-18T10:42:53.566Z,0.50
2022-08-18T10:43:57.629Z,1.00
2022-08-18T10:45:01.025Z,1.00
2022-08-18T10:46:24.920Z,1.00
2022-08-18T10:47:12.155Z,1.00
2022-08-18T10:48:17.351Z,0.50
2022-08-18T10:49:17.528Z,0.50
2022-08-18T10:50:21.444Z,1.00
2022-08-18T10:51:24.632Z,0.50
2022-08-18T10:52:29.112Z,1.00
2022-08-18T10:53:44.055Z,0.50
2022-08-18T10:54:50.787Z,0.00
2022-08-18T10:55:48.690Z,0.50
2022-08-18T10:56:45.663Z,1.00
2022-08-18T10:57:48.935Z,0.00
2022-08-18T10:58:52.230Z,0.00
2022-08-18T10:59:55.241Z,0.50
2022-08-18T11:00:58.795Z,0.00
2022-08-18T11:02:02.966Z,0.00
2022-08-18T11:03:42.795Z,1.00
2022-08-18T11:04:32.691Z,0.50
2022-08-18T11:05:15.830Z,1.00
2022-08-18T11:06:21.584Z,1.50
2022-08-18T11:07:24.532Z,1.25
2022-08-18T11:08:29.127Z,1.50
2022-08-18T11:09:32.551Z,1.00
2022-08-18T11:10:57.979Z,1.00
2022-08-18T11:12:44.338Z,0.50
2022-08-18T11:13:47.686Z,2.00
2022-08-18T11:14:52.023Z,1.50
2022-08-18T11:15:55.060Z,1.00
2022-08-18T11:16:58.527Z,1.50
2022-08-18T11:18:01.697Z,1.00
2022-08-18T11:19:05.587Z,1.25
2022-08-18T11:20:09.033Z,2.00
2022-08-18T11:21:13.692Z,1.00
2022-08-18T11:22:16.754Z,1.50
2022-08-18T11:23:20.984Z,0.75
2022-08-18T11:24:25.217Z,0.50
2022-08-18T11:25:28.973Z,0.75
2022-08-18T11:26:32.471Z,1.00
2022-08-18T11:27:36.199Z,1.25
2022-08-18T11:28:45.078Z,1.25
2022-08-18T11:29:43.844Z,1.00
2022-08-18T11:30:47.139Z,1.50
2022-08-18T11:31:52.771Z,0.50
2022-08-18T11:33:03.470Z,0.00
2022-08-18T11:34:06.927Z,2.50
2022-08-18T11:35:10.121Z,0.50
2022-08-18T11:36:13.192Z,0.60
2022-08-18T11:37:16.221Z,0.00
2022-08-18T11:38:23.087Z,0.50
2022-08-18T11:39:36.819Z,1.00
2022-08-18T11:41:08.581Z,1.50
2022-08-18T11:41:48.399Z,1.50
2022-08-18T11:42:38.105Z,0.75
2022-08-18T11:43:43.168Z,0.50
2022-08-18T11:44:45.807Z,0.00
2022-08-18T11:45:50.117Z,0.00
2022-08-18T11:46:53.458Z,0.00
2022-08-18T11:47:57.613Z,0.00
2022-08-18T11:49:01.082Z,0.50
2022-08-18T11:50:04.513Z,1.00
2022-08-18T11:51:07.623Z,0.00
2022-08-18T11:52:11.885Z,0.00
2022-08-18T11:53:15.363Z,0.00
2022-08-18T11:54:19.768Z,0.50
2022-08-18T11:55:24.561Z,0.75
2022-08-18T11:56:31.260Z,0.50
2022-08-18T11:57:31.986Z,1.00
2022-08-18T11:58:35.338Z,0.50
2022-08-18T11:59:54.395Z,0.00
2022-08-18T12:00:43.971Z,0.50
2022-08-18T12:01:47.669Z,1.00
2022-08-18T12:02:52.084Z,0.50
2022-08-18T12:03:55.287Z,0.50
2022-08-18T12:04:58.555Z,0.50
2022-08-18T12:06:01.650Z,0.50
2022-08-18T12:07:04.806Z,0.50
2022-08-18T12:08:11.321Z,0.25
2022-08-18T12:09:30.624Z,1.50
2022-08-18T12:11:42.755Z,1.50
2022-08-18T12:12:45.711Z,1.00
2022-08-18T12:13:49.298Z,1.00
2022-08-18T12:14:55.983Z,1.00
2022-08-18T12:15:57.827Z,1.00
2022-08-18T12:17:01.713Z,1.00
2022-08-18T12:18:04.903Z,0.50
2022-08-18T12:19:07.965Z,0.00
2022-08-18T12:20:12.177Z,0.50
2022-08-18T12:21:15.257Z,1.00
2022-08-18T12:22:18.584Z,1.00
2022-08-18T12:23:21.650Z,1.00
2022-08-18T12:25:28.905Z,1.00
2022-08-18T12:26:43.008Z,1.50
2022-08-18T12:27:36.089Z,1.00
2022-08-18T12:28:39.057Z,1.00
2022-08-18T12:29:43.740Z,1.00
2022-08-18T12:30:46.464Z,0.50
2022-08-18T12:31:50.148Z,0.00
2022-08-18T12:33:12.275Z,0.00
2022-08-18T12:34:13.485Z,0.00
2022-08-18T12:35:14.247Z,0.50
2022-08-18T12:36:19.022Z,0.25
2022-08-18T12:38:27.062Z,1.00
2022-08-18T12:39:30.583Z,0.50
2022-08-18T12:40:34.965Z,1.00
2022-08-18T12:41:38.349Z,0.75
2022-08-18T12:42:41.839Z,0.50
2022-08-18T12:43:45.142Z,0.50
2022-08-18T12:44:49.536Z,0.00
2022-08-18T12:45:53.193Z,1.00
2022-08-18T12:46:57.916Z,1.50
2022-08-18T12:48:02.222Z,0.50
2022-08-18T12:49:06.528Z,0.00
2022-08-18T12:50:10.194Z,0.00
2022-08-18T12:51:14.226Z,0.00
2022-08-18T12:52:20.575Z,0.00
2022-08-18T12:53:29.676Z,0.50
2022-08-18T12:54:28.323Z,1.50
2022-08-18T12:55:32.751Z,1.00
2022-08-18T12:56:36.062Z,0.50
2022-08-18T12:58:58.651Z,1.00
2022-08-18T13:00:03.261Z,0.75
2022-08-18T13:01:07.519Z,2.00
2022-08-18T13:02:10.536Z,0.75
2022-08-18T13:03:14.661Z,0.50
2022-08-18T13:05:27.715Z,0.50
2022-08-18T13:06:27.530Z,1.50
2022-08-18T13:07:31.161Z,1.00
2022-08-18T13:08:38.252Z,0.00
2022-08-18T13:11:15.094Z,0.75
2022-08-18T13:12:15.169Z,1.00
2022-08-18T13:13:18.303Z,1.00
2022-08-18T13:14:25.384Z,0.00
2022-08-18T13:15:29.167Z,0.00
2022-08-18T13:16:53.478Z,1.00
2022-08-18T13:17:41.451Z,0.00
2022-08-18T13:18:42.407Z,0.00
2022-08-18T13:19:45.590Z,0.00
2022-08-18T13:20:49.736Z,0.50
2022-08-18T13:21:54.102Z,1.50
2022-08-18T13:22:58.629Z,0.50
2022-08-18T13:24:01.914Z,0.50
2022-08-18T13:25:05.761Z,0.00
2022-08-18T13:26:08.984Z,0.00
2022-08-18T13:27:21.271Z,0.50
2022-08-18T13:28:17.185Z,0.50
2022-08-18T13:29:21.384Z,0.00
2022-08-18T13:30:30.957Z,0.00
2022-08-18T13:31:32.879Z,0.00
2022-08-18T13:32:47.059Z,0.00
2022-08-18T13:33:56.403Z,0.50
2022-08-18T13:34:45.669Z,0.50
2022-08-18T13:35:52.424Z,1.00
2022-08-18T13:36:54.686Z,0.50
2022-08-18T13:37:58.648Z,0.50
2022-08-18T13:39:02.085Z,1.50
2022-08-18T13:40:05.868Z,1.00
2022-08-18T13:41:10.342Z,1.00
2022-08-18T13:42:26.708Z,0.50
2022-08-18T13:43:19.622Z,0.00
2022-08-18T13:44:25.879Z,0.00
2022-08-18T13:45:28.961Z,0.00
2022-08-18T13:46:32.545Z,0.00
2022-08-18T13:47:38.252Z,0.00
2022-08-18T13:48:41.742Z,0.00
2022-08-18T13:49:58.265Z,0.50
2022-08-18T13:50:52.367Z,0.50
2022-08-18T13:51:54.392Z,0.00
2022-08-18T13:52:58.049Z,1.00
2022-08-18T13:54:28.962Z,1.00
2022-08-18T13:55:08.043Z,0.00
2022-08-18T13:56:10.091Z,0.00
2022-08-18T13:57:14.566Z,0.00
2022-08-18T13:58:21.102Z,0.00
2022-08-18T13:59:23.943Z,0.00
2022-08-18T14:00:30.789Z,0.00
2022-08-18T14:01:51.840Z,0.50
2022-08-18T14:02:40.139Z,0.00
2022-08-18T14:03:47.342Z,0.50
2022-08-18T14:04:48.754Z,0.50
2022-08-18T14:05:54.322Z,0.00
2022-08-18T14:07:11.010Z,0.50
2022-08-18T14:08:19.446Z,0.00
2022-08-18T14:09:19.416Z,0.00
2022-08-18T14:10:22.795Z,0.50
2022-08-18T14:11:26.232Z,0.50
2022-08-18T14:12:33.352Z,0.50
2022-08-18T14:13:43.806Z,0.50
2022-08-18T14:14:46.067Z,0.50
2022-08-18T14:15:53.526Z,0.00